Arnold, North Carolina
Current Conditions -  °F | °C
As of 5:55 PM on Friday 31 Oct 2014 (Local Time) from KEXX Reporting Station
Broken Clouds Broken Clouds  
Wind Chill: 55°   Ceiling: 12000
Heat Index: 55°   Visibility: 10mi
Dew Point: 45°   Wind: 0mph
Humidity: 69%   Direction: NA
Pressure: 29.8"   Gusts: NA
Location:  35.7974°N, 80.2541°W
Report Text: KEXX 312155Z AUTO 00000KT 10SM SCT060 SCT075 BKN120 13/07 A2980 RMK AO2 T01290074
Loading
Personal Weather Stations






























Interactive Weather Map
Tropical Storm Tracking
New forecast layout! Learn more

10-Day Weather Forecast

Advertisements
Track Severe Weather on mobile